Time;durP1;ratioP1;P1;durP2;ratioP2;P2;SDS_P1;SDS_P2;PMS_P1;PMS_P2;Temp;Humidity;BMP_temperature;BMP_pressure;BME280_temperature;BME280_humidity;BME280_pressure;Samples;Min_cycle;Max_cycle;Signal;HPM_P1;HPM_P2
2023/09/05 00:00:03;;;;;;;1.60;1.50;;;14.40;99.90;;;;;;5069266;28;20491;-74
2023/09/05 00:02:30;;;;;;;4.10;3.70;;;14.40;99.90;;;;;;5069333;28;20452;-78
2023/09/05 00:04:58;;;;;;;2.70;2.50;;;14.40;99.90;;;;;;5068108;28;20469;-74
2023/09/05 00:07:27;;;;;;;2.17;1.50;;;14.40;99.90;;;;;;5067770;28;20527;-78
2023/09/05 00:09:57;;;;;;;1.73;1.63;;;14.50;99.90;;;;;;5058512;28;20587;-74
2023/09/05 00:12:27;;;;;;;1.73;1.40;;;14.60;99.90;;;;;;5070057;28;20472;-74
2023/09/05 00:14:54;;;;;;;1.63;1.33;;;14.60;99.90;;;;;;5065241;28;20464;-76
2023/09/05 00:17:21;;;;;;;1.53;1.23;;;14.60;99.90;;;;;;5066333;28;20455;-74
2023/09/05 00:19:48;;;;;;;2.50;1.50;;;14.60;99.90;;;;;;5067806;28;20528;-74
2023/09/05 00:22:15;;;;;;;2.20;1.33;;;14.60;99.90;;;;;;5061610;28;21019;-74
2023/09/05 00:24:44;;;;;;;1.57;1.47;;;14.70;99.90;;;;;;5068786;28;20457;-74
2023/09/05 00:27:11;;;;;;;4.10;1.37;;;14.60;99.90;;;;;;5060290;28;21224;-74
2023/09/05 00:29:41;;;;;;;2.00;1.67;;;14.50;99.90;;;;;;5067016;28;20443;-73
2023/09/05 00:32:09;;;;;;;3.00;2.20;;;14.60;99.90;;;;;;5067412;28;20477;-74
2023/09/05 00:34:38;;;;;;;1.77;1.40;;;14.60;99.90;;;;;;5065697;28;20500;-74
2023/09/05 00:37:06;;;;;;;2.40;2.20;;;14.50;99.90;;;;;;5067047;28;21439;-74
2023/09/05 00:39:34;;;;;;;1.53;1.20;;;14.50;99.90;;;;;;5068188;28;20466;-74
2023/09/05 00:42:03;;;;;;;1.60;1.50;;;14.50;99.90;;;;;;5068048;28;20550;-74
2023/09/05 00:44:30;;;;;;;2.33;2.13;;;14.60;99.90;;;;;;5068181;28;20487;-75
2023/09/05 00:47:00;;;;;;;2.20;2.00;;;14.60;99.90;;;;;;5066239;28;20503;-76
2023/09/05 00:49:28;;;;;;;1.67;1.53;;;14.50;99.90;;;;;;5056430;28;20495;-74
2023/09/05 00:51:56;;;;;;;2.60;1.90;;;14.50;99.90;;;;;;5069592;28;20485;-74
2023/09/05 00:54:24;;;;;;;3.60;2.47;;;14.50;99.90;;;;;;5064564;28;20470;-75
2023/09/05 00:56:52;;;;;;;3.10;2.50;;;14.40;99.90;;;;;;5058959;28;20588;-74
2023/09/05 00:59:21;;;;;;;2.03;1.93;;;14.40;99.90;;;;;;5068162;28;20549;-74
2023/09/05 01:01:49;;;;;;;3.00;2.70;;;14.30;99.90;;;;;;5066987;28;20835;-76
2023/09/05 01:04:18;;;;;;;1.80;1.43;;;14.20;99.90;;;;;;5067612;28;20465;-74
2023/09/05 01:06:54;;;;;;;2.43;2.10;;;14.20;99.90;;;;;;5067624;28;20528;-74
2023/09/05 01:09:30;;;;;;;2.30;2.10;;;14.20;99.90;;;;;;5058456;28;20534;-77
2023/09/05 01:11:59;;;;;;;1.93;1.73;;;14.20;99.90;;;;;;5067015;28;20928;-75
2023/09/05 01:14:26;;;;;;;2.57;2.10;;;14.10;99.90;;;;;;5069078;28;20454;-74
2023/09/05 01:16:56;;;;;;;2.00;1.80;;;14.10;99.90;;;;;;5065694;28;20501;-77
2023/09/05 01:19:28;;;;;;;3.97;2.70;;;14.10;99.90;;;;;;5068917;28;20457;-73
2023/09/05 01:22:05;;;;;;;1.93;1.73;;;14.00;99.90;;;;;;5067774;28;20567;-74
2023/09/05 01:24:35;;;;;;;2.63;1.40;;;14.00;99.90;;;;;;5068648;28;20499;-73
2023/09/05 01:27:04;;;;;;;2.40;2.00;;;14.00;99.90;;;;;;5065004;28;21219;-74
2023/09/05 01:29:36;;;;;;;3.67;2.00;;;13.90;99.90;;;;;;5067942;28;20532;-74
2023/09/05 01:32:04;;;;;;;2.33;1.97;;;13.90;99.90;;;;;;5063922;28;20470;-74
2023/09/05 01:34:31;;;;;;;6.57;1.80;;;13.80;99.90;;;;;;5068478;28;20480;-73
2023/09/05 01:36:58;;;;;;;2.30;1.60;;;13.90;99.90;;;;;;5070498;28;20436;-74
2023/09/05 01:39:25;;;;;;;3.53;2.00;;;13.80;99.90;;;;;;5067731;28;20495;-74
2023/09/05 01:41:54;;;;;;;2.00;1.83;;;13.80;99.90;;;;;;5067746;28;20511;-74
2023/09/05 01:44:21;;;;;;;3.37;2.50;;;13.80;99.90;;;;;;5066819;28;20445;-76
2023/09/05 01:46:48;;;;;;;3.90;2.13;;;13.80;99.90;;;;;;5064968;28;20964;-75
2023/09/05 01:49:14;;;;;;;4.30;1.93;;;13.80;99.90;;;;;;5067023;28;20477;-75
2023/09/05 01:51:40;;;;;;;1.70;1.60;;;13.80;99.90;;;;;;5066795;28;20451;-74
2023/09/05 01:54:07;;;;;;;2.73;2.23;;;13.70;99.90;;;;;;5060957;28;21119;-74
2023/09/05 01:56:34;;;;;;;3.30;1.93;;;13.70;99.90;;;;;;5067260;28;20476;-78
2023/09/05 01:59:03;;;;;;;2.10;1.90;;;13.70;99.90;;;;;;5067101;28;20455;-77
2023/09/05 02:01:30;;;;;;;2.67;2.47;;;13.70;99.90;;;;;;5065803;28;20555;-74
2023/09/05 02:03:57;;;;;;;2.93;2.70;;;13.60;99.90;;;;;;5063428;28;20789;-75
2023/09/05 02:06:24;;;;;;;2.47;2.27;;;13.60;99.90;;;;;;5065471;28;20466;-76
2023/09/05 02:08:51;;;;;;;3.43;1.93;;;13.60;99.90;;;;;;5059567;28;20479;-74
2023/09/05 02:11:18;;;;;;;2.57;2.37;;;13.50;99.90;;;;;;5065111;28;21018;-77
2023/09/05 02:13:44;;;;;;;4.60;1.63;;;13.40;99.90;;;;;;5065658;28;20505;-74
2023/09/05 02:16:18;;;;;;;1.50;1.40;;;13.40;99.90;;;;;;5065123;28;20448;-74
2023/09/05 02:18:46;;;;;;;3.47;2.90;;;13.40;99.90;;;;;;5064441;28;20573;-74
2023/09/05 02:21:13;;;;;;;10.50;3.00;;;13.40;99.90;;;;;;5066574;28;21060;-76
2023/09/05 02:23:40;;;;;;;5.50;2.50;;;13.40;99.90;;;;;;5066434;28;20473;-75
2023/09/05 02:26:06;;;;;;;3.07;2.30;;;13.20;99.90;;;;;;5066505;28;20812;-74
2023/09/05 02:28:33;;;;;;;2.87;2.00;;;13.00;99.90;;;;;;5059099;28;20473;-74
2023/09/05 02:31:05;;;;;;;2.13;2.03;;;13.00;99.90;;;;;;5066663;28;20528;-74
2023/09/05 02:33:36;;;;;;;2.23;1.97;;;12.90;99.90;;;;;;5065434;28;20522;-74
2023/09/05 02:36:15;;;;;;;2.23;2.07;;;12.80;99.90;;;;;;5067111;28;20448;-74
2023/09/05 02:38:42;;;;;;;3.07;2.27;;;12.90;99.90;;;;;;5059527;28;20461;-77
2023/09/05 02:41:11;;;;;;;4.50;2.87;;;12.90;99.90;;;;;;5066899;28;20488;-75
2023/09/05 02:43:39;;;;;;;2.53;2.33;;;12.90;99.90;;;;;;5065364;28;20538;-75
2023/09/05 02:46:07;;;;;;;3.87;2.63;;;12.80;99.90;;;;;;5065117;28;20550;-74
2023/09/05 02:48:38;;;;;;;3.87;3.27;;;12.80;99.90;;;;;;5065710;28;20542;-75
2023/09/05 02:51:07;;;;;;;3.00;2.57;;;12.70;99.90;;;;;;5054371;28;21324;-74
2023/09/05 02:53:34;;;;;;;2.13;1.83;;;12.70;99.90;;;;;;5065660;28;20452;-74
2023/09/05 02:56:01;;;;;;;2.13;1.93;;;12.70;99.90;;;;;;5064844;28;20552;-74
2023/09/05 02:58:29;;;;;;;3.20;2.90;;;12.70;99.90;;;;;;5066737;28;20514;-74
2023/09/05 03:01:00;;;;;;;2.40;2.20;;;12.80;99.90;;;;;;5067145;28;20489;-74
2023/09/05 03:03:27;;;;;;;3.00;2.63;;;12.90;99.90;;;;;;5069226;28;20802;-74
2023/09/05 03:05:55;;;;;;;2.73;2.20;;;12.90;99.90;;;;;;5059708;28;20462;-73
2023/09/05 03:08:22;;;;;;;2.00;1.57;;;13.00;99.90;;;;;;5066819;28;20505;-74
2023/09/05 03:10:51;;;;;;;3.20;2.37;;;13.00;99.90;;;;;;5066423;28;20464;-76
2023/09/05 03:13:18;;;;;;;2.33;2.10;;;13.00;99.90;;;;;;5062100;28;20465;-76
2023/09/05 03:15:45;;;;;;;2.57;2.30;;;12.90;99.90;;;;;;5061087;28;20517;-74
2023/09/05 03:18:12;;;;;;;2.43;2.23;;;12.80;99.90;;;;;;5065901;28;20999;-75
2023/09/05 03:20:39;;;;;;;2.77;2.20;;;12.80;99.90;;;;;;5064432;28;20477;-75
2023/09/05 03:23:07;;;;;;;3.10;2.33;;;12.90;99.90;;;;;;5068316;28;20527;-74
2023/09/05 03:25:34;;;;;;;2.40;1.73;;;12.90;99.90;;;;;;5068835;28;21032;-74
2023/09/05 03:28:01;;;;;;;2.53;2.33;;;12.90;99.90;;;;;;5065643;28;20456;-74
2023/09/05 03:30:28;;;;;;;3.87;2.90;;;12.80;99.90;;;;;;5070046;28;21057;-75
2023/09/05 03:32:55;;;;;;;8.37;2.37;;;12.80;99.90;;;;;;5066283;28;20565;-77
2023/09/05 03:35:22;;;;;;;2.70;2.50;;;12.70;99.90;;;;;;5066966;28;20924;-74
2023/09/05 03:37:49;;;;;;;3.13;2.70;;;12.70;99.90;;;;;;5069575;28;20526;-76
2023/09/05 03:40:18;;;;;;;2.77;2.17;;;12.60;99.90;;;;;;5068106;28;20543;-75
2023/09/05 03:42:45;;;;;;;2.93;2.73;;;12.60;99.90;;;;;;5069138;28;20521;-74
2023/09/05 03:45:12;;;;;;;4.60;3.57;;;12.70;99.90;;;;;;5069908;28;20458;-73
2023/09/05 03:47:39;;;;;;;3.90;2.60;;;12.60;99.90;;;;;;5065225;28;20533;-73
2023/09/05 03:50:07;;;;;;;2.67;2.20;;;12.50;99.90;;;;;;5069170;28;20478;-75
2023/09/05 03:52:34;;;;;;;2.73;2.53;;;12.50;99.90;;;;;;5069403;28;20987;-75
2023/09/05 03:55:02;;;;;;;6.53;2.87;;;12.50;99.90;;;;;;5065274;28;20514;-75
2023/09/05 03:57:30;;;;;;;2.47;2.07;;;12.50;99.90;;;;;;5070008;28;20546;-78
2023/09/05 03:59:57;;;;;;;4.80;2.83;;;12.30;99.90;;;;;;5066010;28;20548;-78
2023/09/05 04:02:24;;;;;;;1.87;1.63;;;12.40;99.90;;;;;;5058258;28;20580;-74
2023/09/05 04:04:55;;;;;;;2.67;2.47;;;12.40;99.90;;;;;;5061791;28;20466;-79
2023/09/05 04:07:23;;;;;;;7.07;3.23;;;12.40;99.90;;;;;;5062905;28;20976;-78
2023/09/05 04:09:50;;;;;;;3.47;2.50;;;12.40;99.90;;;;;;5062463;28;20504;-75
2023/09/05 04:12:17;;;;;;;7.47;4.40;;;12.40;99.90;;;;;;5063307;28;20638;-74
2023/09/05 04:14:45;;;;;;;3.67;2.17;;;12.30;99.90;;;;;;5063351;28;20469;-77
2023/09/05 04:17:12;;;;;;;3.30;2.33;;;12.30;99.90;;;;;;5061587;28;20508;-74
2023/09/05 04:19:40;;;;;;;3.60;3.30;;;12.20;99.90;;;;;;5061860;28;20447;-75
2023/09/05 04:22:06;;;;;;;3.40;2.83;;;12.30;99.90;;;;;;5064086;28;20547;-76
2023/09/05 04:24:33;;;;;;;3.40;3.10;;;12.40;99.90;;;;;;5054521;28;20968;-75
2023/09/05 04:27:00;;;;;;;3.90;3.40;;;12.40;99.90;;;;;;5067470;28;20497;-75
2023/09/05 04:29:27;;;;;;;3.13;2.83;;;12.40;99.90;;;;;;5065398;28;20524;-75
2023/09/05 04:31:56;;;;;;;3.70;2.80;;;12.40;99.90;;;;;;5067313;28;20940;-74
2023/09/05 04:34:23;;;;;;;2.53;2.33;;;12.50;99.90;;;;;;5064105;28;20544;-75
2023/09/05 04:36:50;;;;;;;6.03;4.77;;;12.50;99.90;;;;;;5060106;28;20545;-77
2023/09/05 04:39:17;;;;;;;4.73;3.40;;;12.50;99.90;;;;;;5061230;28;20542;-78
2023/09/05 04:41:44;;;;;;;2.40;2.20;;;12.60;99.90;;;;;;5068128;28;20481;-75
2023/09/05 04:44:11;;;;;;;5.67;4.10;;;12.60;99.90;;;;;;5066306;28;20503;-75
2023/09/05 04:46:39;;;;;;;4.63;3.30;;;12.50;99.90;;;;;;5071225;28;21079;-74
2023/09/05 04:49:09;;;;;;;3.57;2.60;;;12.50;99.90;;;;;;5071069;28;20569;-75
2023/09/05 04:51:36;;;;;;;6.20;3.20;;;12.50;99.90;;;;;;5067491;28;20480;-75
2023/09/05 04:54:03;;;;;;;7.73;2.60;;;12.60;99.90;;;;;;5060389;28;20472;-74
2023/09/05 04:56:30;;;;;;;3.90;3.60;;;12.60;99.90;;;;;;5066426;28;21041;-78
2023/09/05 04:58:56;;;;;;;5.13;2.67;;;12.70;99.90;;;;;;5069450;28;20896;-74
2023/09/05 05:01:23;;;;;;;3.90;3.43;;;12.70;99.90;;;;;;5071146;28;20580;-78
2023/09/05 05:03:50;;;;;;;2.30;1.93;;;12.80;99.90;;;;;;5062015;28;20470;-75
2023/09/05 05:06:20;;;;;;;3.20;2.63;;;12.80;99.90;;;;;;5060548;28;20529;-74
2023/09/05 05:08:47;;;;;;;2.40;2.17;;;12.80;99.90;;;;;;5064952;28;20489;-76
2023/09/05 05:11:14;;;;;;;3.20;2.60;;;12.80;99.90;;;;;;5065189;28;20501;-75
2023/09/05 05:13:41;;;;;;;3.00;2.57;;;12.90;99.90;;;;;;5054646;28;20544;-74
2023/09/05 05:16:08;;;;;;;3.03;2.67;;;12.90;99.90;;;;;;5055514;28;20512;-74
2023/09/05 05:18:35;;;;;;;4.40;3.07;;;13.00;99.90;;;;;;5057554;28;20513;-77
2023/09/05 05:21:02;;;;;;;3.60;3.30;;;13.00;99.90;;;;;;5052557;28;22102;-76
2023/09/05 05:23:30;;;;;;;2.67;1.97;;;13.00;99.90;;;;;;5064791;28;20489;-74
2023/09/05 05:26:00;;;;;;;6.33;2.53;;;13.10;99.90;;;;;;5061790;28;20506;-75
2023/09/05 05:28:26;;;;;;;4.07;2.27;;;13.10;99.90;;;;;;5059631;28;20998;-75
2023/09/05 05:30:53;;;;;;;2.80;2.60;;;13.20;99.90;;;;;;5059362;28;20518;-77
2023/09/05 05:33:20;;;;;;;2.73;1.97;;;13.20;99.90;;;;;;5067675;28;20965;-74
2023/09/05 05:35:55;;;;;;;3.20;2.47;;;13.30;99.90;;;;;;5065150;28;20477;-76
2023/09/05 05:38:22;;;;;;;2.50;2.20;;;13.40;99.90;;;;;;5067399;28;20510;-74
2023/09/05 05:40:51;;;;;;;3.07;2.50;;;13.40;99.90;;;;;;5066435;28;20467;-76
2023/09/05 05:43:17;;;;;;;2.97;2.73;;;13.50;99.90;;;;;;5065994;28;20515;-78
2023/09/05 05:45:49;;;;;;;4.17;2.80;;;13.50;99.90;;;;;;5066130;28;20450;-75
2023/09/05 05:48:16;;;;;;;4.10;2.50;;;13.60;99.90;;;;;;5065897;28;20464;-75
2023/09/05 05:50:45;;;;;;;3.37;3.07;;;13.60;99.90;;;;;;5066890;28;20949;-79
2023/09/05 05:53:12;;;;;;;4.53;2.30;;;13.70;99.90;;;;;;5068867;28;20449;-75
2023/09/05 05:55:39;;;;;;;3.00;2.50;;;13.80;99.90;;;;;;5066295;28;20569;-77
2023/09/05 05:58:08;;;;;;;3.83;3.43;;;13.80;99.90;;;;;;5070426;28;20973;-76
2023/09/05 06:00:34;;;;;;;3.20;2.63;;;13.90;99.90;;;;;;5058320;28;20808;-74
2023/09/05 06:03:03;;;;;;;5.50;3.10;;;14.00;99.90;;;;;;5067442;28;20540;-74
2023/09/05 06:05:30;;;;;;;3.23;2.80;;;14.00;99.90;;;;;;5065330;28;20459;-74
2023/09/05 06:07:56;;;;;;;3.87;2.50;;;14.10;99.90;;;;;;5067048;28;20448;-76
2023/09/05 06:10:24;;;;;;;3.03;2.37;;;14.20;99.90;;;;;;5064705;28;20899;-77
2023/09/05 06:12:51;;;;;;;3.10;2.83;;;14.30;99.90;;;;;;5064783;28;20468;-75
2023/09/05 06:15:19;;;;;;;3.10;2.30;;;14.30;99.90;;;;;;5064665;28;20471;-75
2023/09/05 06:17:46;;;;;;;3.00;2.63;;;14.40;99.90;;;;;;5066602;28;20463;-78
2023/09/05 06:20:13;;;;;;;1.90;1.67;;;14.40;99.90;;;;;;5062291;28;20774;-75
2023/09/05 06:22:40;;;;;;;2.80;2.17;;;14.50;99.90;;;;;;5066944;28;20627;-76
2023/09/05 06:25:08;;;;;;;2.80;2.33;;;14.50;99.90;;;;;;5055903;28;21019;-74
2023/09/05 06:27:35;;;;;;;4.30;2.90;;;14.60;99.90;;;;;;5053782;28;20445;-75
2023/09/05 06:30:02;;;;;;;2.90;2.43;;;14.80;99.90;;;;;;5065867;28;21074;-75
2023/09/05 06:32:30;;;;;;;2.57;2.37;;;14.80;99.90;;;;;;5065829;28;20796;-74
2023/09/05 06:34:57;;;;;;;3.87;2.70;;;14.90;99.90;;;;;;5056910;28;20971;-74
2023/09/05 06:37:24;;;;;;;2.50;2.30;;;14.90;99.90;;;;;;5064932;28;20466;-75
2023/09/05 06:39:52;;;;;;;11.97;3.37;;;15.00;99.90;;;;;;5064056;28;20486;-75
2023/09/05 06:42:18;;;;;;;5.13;2.73;;;15.10;99.90;;;;;;5063597;28;20578;-76
2023/09/05 06:44:45;;;;;;;3.17;2.53;;;15.30;99.90;;;;;;5064261;28;20514;-77
2023/09/05 06:47:12;;;;;;;4.90;2.90;;;15.30;99.90;;;;;;5062497;28;21140;-77
2023/09/05 06:49:41;;;;;;;3.20;2.87;;;15.40;99.90;;;;;;5056897;28;20556;-75
2023/09/05 06:52:08;;;;;;;3.63;2.30;;;15.50;99.90;;;;;;5062304;28;20543;-75
2023/09/05 06:54:35;;;;;;;3.83;2.67;;;15.60;99.90;;;;;;5047546;28;21002;-74
2023/09/05 06:57:02;;;;;;;2.20;1.93;;;15.70;99.90;;;;;;5058810;28;20455;-76
2023/09/05 06:59:29;;;;;;;3.87;2.20;;;15.60;99.90;;;;;;5058048;28;21134;-74
2023/09/05 07:01:56;;;;;;;3.47;2.80;;;15.80;99.90;;;;;;5061702;28;20483;-77
2023/09/05 07:04:23;;;;;;;2.30;2.07;;;15.80;99.90;;;;;;5059669;28;21088;-77
2023/09/05 07:06:51;;;;;;;4.70;2.33;;;15.90;99.90;;;;;;5054894;28;20466;-74
2023/09/05 07:09:19;;;;;;;2.33;2.13;;;15.90;99.90;;;;;;5063452;28;20529;-75
2023/09/05 07:11:46;;;;;;;2.87;2.30;;;15.90;99.90;;;;;;5058116;28;21195;-74
2023/09/05 07:14:13;;;;;;;5.10;2.63;;;16.00;99.90;;;;;;5049422;28;20467;-75
2023/09/05 07:16:40;;;;;;;2.40;2.20;;;16.10;99.90;;;;;;5057063;28;20463;-75
2023/09/05 07:19:06;;;;;;;3.27;2.70;;;16.10;99.90;;;;;;5055469;28;20503;-74
2023/09/05 07:21:33;;;;;;;2.30;1.90;;;16.20;99.90;;;;;;5056973;28;20498;-74
2023/09/05 07:24:02;;;;;;;3.50;3.20;;;16.30;99.90;;;;;;5052992;28;21129;-75
2023/09/05 07:26:29;;;;;;;2.97;1.67;;;16.30;99.90;;;;;;5056003;28;20871;-75
2023/09/05 07:28:56;;;;;;;9.30;2.50;;;16.40;99.90;;;;;;5063227;28;20447;-75
2023/09/05 07:31:25;;;;;;;5.43;2.20;;;16.50;99.90;;;;;;5062296;28;20467;-75
2023/09/05 07:33:52;;;;;;;2.60;2.23;;;16.50;99.90;;;;;;5061678;28;20535;-75
2023/09/05 07:36:19;;;;;;;2.83;2.03;;;16.60;99.90;;;;;;5065109;28;21002;-74
2023/09/05 07:38:46;;;;;;;3.20;2.47;;;16.70;99.90;;;;;;5064437;28;20496;-75
2023/09/05 07:41:14;;;;;;;3.07;1.90;;;16.80;99.90;;;;;;5065105;28;20482;-75
2023/09/05 07:43:41;;;;;;;5.37;2.77;;;16.90;99.90;;;;;;5066268;28;20479;-75
2023/09/05 07:46:10;;;;;;;2.70;2.20;;;16.90;99.90;;;;;;5065801;28;20456;-76
2023/09/05 07:48:38;;;;;;;2.57;2.37;;;17.00;99.90;;;;;;5061279;28;20491;-75
2023/09/05 07:51:07;;;;;;;2.80;2.03;;;17.20;99.90;;;;;;5062234;28;20546;-75
2023/09/05 07:53:35;;;;;;;2.53;2.33;;;17.30;99.90;;;;;;5060845;28;20452;-74
2023/09/05 07:56:03;;;;;;;2.13;1.93;;;17.40;99.90;;;;;;5058385;28;20505;-75
2023/09/05 07:58:34;;;;;;;2.53;1.83;;;17.40;99.90;;;;;;5064125;28;20483;-75
2023/09/05 08:01:01;;;;;;;2.37;1.97;;;17.40;99.90;;;;;;5061894;28;20958;-74
2023/09/05 08:03:28;;;;;;;2.50;1.90;;;17.70;99.90;;;;;;5061782;28;20491;-74
2023/09/05 08:05:55;;;;;;;2.90;2.00;;;17.70;99.90;;;;;;5062864;28;20470;-77
2023/09/05 08:08:22;;;;;;;1.93;1.63;;;17.80;99.90;;;;;;5062350;28;20495;-75
2023/09/05 08:10:49;;;;;;;1.50;1.40;;;17.90;99.90;;;;;;5055706;28;20498;-75
2023/09/05 08:13:16;;;;;;;3.90;2.30;;;17.90;99.90;;;;;;5058442;28;20476;-75
2023/09/05 08:15:46;;;;;;;18.33;2.33;;;18.10;99.90;;;;;;5058466;28;20474;-75
2023/09/05 08:18:13;;;;;;;1.93;1.83;;;18.30;99.90;;;;;;5057743;28;20445;-75
2023/09/05 08:20:42;;;;;;;3.13;2.33;;;18.30;99.90;;;;;;5052713;28;20556;-74
2023/09/05 08:23:09;;;;;;;2.23;1.70;;;18.50;99.90;;;;;;5059785;28;20516;-74
2023/09/05 08:25:37;;;;;;;2.53;1.40;;;18.60;99.90;;;;;;5054563;28;20483;-75
2023/09/05 08:28:04;;;;;;;6.73;1.77;;;18.80;99.90;;;;;;5055849;28;20441;-76
2023/09/05 08:30:31;;;;;;;2.50;2.30;;;18.80;99.90;;;;;;5066264;28;21161;-75
2023/09/05 08:33:02;;;;;;;2.90;2.60;;;18.70;99.90;;;;;;5067825;28;21013;-75
2023/09/05 08:35:29;;;;;;;1.77;1.50;;;18.50;99.90;;;;;;5064676;28;21051;-75
2023/09/05 08:37:57;;;;;;;4.87;2.40;;;18.50;99.90;;;;;;5060528;28;20525;-75
2023/09/05 08:40:24;;;;;;;2.70;1.90;;;18.70;99.90;;;;;;5069018;28;20446;-75
2023/09/05 08:42:51;;;;;;;2.33;2.00;;;18.70;99.90;;;;;;5069376;28;21006;-76
2023/09/05 08:45:22;;;;;;;1.80;1.70;;;18.70;99.90;;;;;;5064976;28;21019;-75
2023/09/05 08:47:50;;;;;;;4.20;3.87;;;18.80;99.90;;;;;;5058478;28;20471;-74
2023/09/05 08:50:19;;;;;;;2.57;1.97;;;18.90;99.90;;;;;;5066363;28;20504;-73
2023/09/05 08:52:47;;;;;;;2.07;1.63;;;19.00;99.90;;;;;;5071488;28;20444;-74
2023/09/05 08:55:16;;;;;;;3.03;2.00;;;19.00;99.90;;;;;;5072313;28;21002;-74
2023/09/05 08:57:47;;;;;;;2.60;1.37;;;19.30;99.90;;;;;;5068279;28;20931;-73
2023/09/05 09:00:18;;;;;;;1.63;1.30;;;19.30;99.90;;;;;;5069598;28;20525;-75
2023/09/05 09:02:45;;;;;;;4.63;2.30;;;19.20;99.90;;;;;;5064255;28;20570;-76
2023/09/05 09:05:13;;;;;;;1.97;1.80;;;19.40;99.90;;;;;;5061751;28;20705;-74
2023/09/05 09:07:42;;;;;;;1.70;1.50;;;19.60;99.90;;;;;;5055165;28;20540;-76
2023/09/05 09:10:20;;;;;;;5.60;2.33;;;19.50;99.90;;;;;;5060515;28;21119;-75
2023/09/05 09:12:50;;;;;;;1.37;1.27;;;19.60;99.90;;;;;;5063142;28;20621;-75
2023/09/05 09:15:17;;;;;;;2.03;1.83;;;19.90;99.90;;;;;;5061642;28;20494;-75
2023/09/05 09:17:48;;;;;;;8.07;1.90;;;19.90;99.90;;;;;;5057351;28;20446;-79
2023/09/05 09:20:16;;;;;;;3.50;1.47;;;19.80;99.90;;;;;;5058665;28;20447;-75
2023/09/05 09:22:44;;;;;;;1.97;1.40;;;19.90;99.90;;;;;;5064987;28;20463;-75
2023/09/05 09:25:14;;;;;;;3.67;1.70;;;19.80;99.90;;;;;;5057171;28;20448;-77
2023/09/05 09:27:42;;;;;;;17.33;2.10;;;20.00;99.90;;;;;;5059399;28;20470;-76
2023/09/05 09:30:10;;;;;;;1.80;1.70;;;20.00;99.90;;;;;;5065102;28;20476;-75
2023/09/05 09:32:38;;;;;;;1.17;1.07;;;20.10;99.90;;;;;;5067916;28;20501;-75
2023/09/05 09:35:06;;;;;;;2.20;1.67;;;20.10;99.90;;;;;;5062406;28;20471;-75
2023/09/05 09:37:34;;;;;;;2.57;1.70;;;20.30;99.90;;;;;;5055764;28;20873;-75
2023/09/05 09:40:05;;;;;;;2.40;1.67;;;20.30;99.90;;;;;;5050286;28;20514;-77
2023/09/05 09:42:33;;;;;;;1.87;1.70;;;20.50;99.90;;;;;;5058645;28;20459;-74
2023/09/05 09:45:04;;;;;;;2.43;1.23;;;20.50;99.90;;;;;;5049959;28;20463;-74
2023/09/05 09:47:34;;;;;;;1.80;1.57;;;20.50;99.90;;;;;;5059473;28;20819;-78
2023/09/05 09:50:03;;;;;;;2.03;1.83;;;20.60;99.90;;;;;;5059275;28;20537;-79
2023/09/05 09:52:35;;;;;;;4.30;2.00;;;20.80;99.90;;;;;;5055435;28;20445;-75
2023/09/05 09:55:07;;;;;;;1.53;1.43;;;20.90;99.90;;;;;;5050194;28;20547;-78
2023/09/05 09:57:44;;;;;;;2.23;1.03;;;20.90;99.90;;;;;;5059257;28;20448;-75
2023/09/05 10:00:15;;;;;;;3.97;1.17;;;21.10;99.90;;;;;;5059714;28;20460;-79
2023/09/05 10:02:43;;;;;;;1.63;1.30;;;21.10;99.90;;;;;;5059394;28;20451;-77
2023/09/05 10:05:11;;;;;;;2.73;1.73;;;21.30;99.90;;;;;;5062608;28;20550;-75
2023/09/05 10:07:38;;;;;;;3.37;1.87;;;21.50;99.90;;;;;;5051348;28;21049;-75
2023/09/05 10:10:09;;;;;;;1.70;1.53;;;21.60;99.90;;;;;;5056234;28;20465;-74
2023/09/05 10:12:37;;;;;;;1.90;1.60;;;21.40;99.90;;;;;;5047350;28;20448;-77
2023/09/05 10:15:06;;;;;;;2.43;1.30;;;21.40;99.90;;;;;;5050401;28;21034;-75
2023/09/05 10:17:34;;;;;;;2.73;1.83;;;21.60;99.90;;;;;;5059300;28;21129;-75
2023/09/05 10:20:02;;;;;;;1.80;1.70;;;21.70;99.90;;;;;;5059679;28;20470;-75
2023/09/05 10:22:32;;;;;;;1.73;1.63;;;22.00;99.90;;;;;;5059323;28;20946;-75
2023/09/05 10:25:00;;;;;;;2.03;1.93;;;22.00;99.90;;;;;;5056526;28;20569;-75
2023/09/05 10:27:28;;;;;;;2.20;1.80;;;22.20;99.90;;;;;;5063530;28;20486;-76
2023/09/05 10:29:57;;;;;;;2.40;1.50;;;22.30;99.90;;;;;;5059355;28;20514;-75
2023/09/05 10:32:25;;;;;;;2.30;1.70;;;22.10;99.90;;;;;;5062959;28;20522;-78
2023/09/05 10:35:02;;;;;;;2.10;1.70;;;22.30;99.90;;;;;;5060247;28;20444;-74
2023/09/05 10:37:40;;;;;;;2.70;2.50;;;22.30;99.20;;;;;;5065706;28;20513;-75
2023/09/05 10:40:08;;;;;;;1.83;1.50;;;22.40;98.60;;;;;;5065637;28;21175;-77
2023/09/05 10:42:43;;;;;;;4.70;1.60;;;22.60;98.10;;;;;;5065003;28;20517;-74
2023/09/05 10:45:30;;;;;;;4.50;1.93;;;22.70;99.40;;;;;;5062132;28;20548;-76
2023/09/05 10:48:04;;;;;;;2.63;1.43;;;22.30;97.10;;;;;;5065415;28;20509;-78
2023/09/05 10:50:32;;;;;;;4.73;2.17;;;22.40;98.00;;;;;;5063254;28;20576;-75
2023/09/05 10:53:22;;;;;;;1.13;1.00;;;22.40;97.50;;;;;;5058851;28;20449;-75
2023/09/05 10:55:52;;;;;;;1.67;1.30;;;22.50;97.40;;;;;;5059115;28;20576;-77
2023/09/05 10:58:41;;;;;;;5.27;1.43;;;22.40;96.20;;;;;;5055299;28;20506;-75
2023/09/05 11:01:48;;;;;;;3.17;1.67;;;22.60;98.10;;;;;;5057213;28;20459;-77
2023/09/05 11:04:20;;;;;;;2.90;1.27;;;22.80;97.70;;;;;;5055133;28;21031;-75
2023/09/05 11:07:08;;;;;;;1.70;1.60;;;22.90;97.40;;;;;;5062111;28;20525;-75
2023/09/05 11:09:44;;;;;;;2.03;1.47;;;22.70;95.10;;;;;;5059781;28;20448;-76
2023/09/05 11:12:12;;;;;;;1.70;1.37;;;22.80;95.70;;;;;;5056403;28;20455;-76
2023/09/05 11:14:41;;;;;;;1.90;1.80;;;22.80;94.00;;;;;;5059989;28;20496;-75
2023/09/05 11:17:13;;;;;;;3.20;1.77;;;22.80;93.80;;;;;;5057416;28;20440;-75
2023/09/05 11:19:42;;;;;;;4.00;1.40;;;22.80;92.90;;;;;;5048493;28;20506;-75
2023/09/05 11:22:11;;;;;;;2.17;1.93;;;22.80;93.50;;;;;;5058436;28;20693;-75
2023/09/05 11:24:45;;;;;;;1.30;1.20;;;23.00;92.90;;;;;;5048990;28;20488;-77
2023/09/05 11:27:13;;;;;;;1.47;1.37;;;23.20;93.10;;;;;;5062605;28;21164;-77
2023/09/05 11:29:42;;;;;;;1.53;1.43;;;23.30;92.50;;;;;;5060787;28;20541;-75
2023/09/05 11:32:12;;;;;;;1.90;1.53;;;23.10;91.40;;;;;;5064440;28;20474;-74
2023/09/05 11:34:41;;;;;;;2.47;2.30;;;23.10;92.30;;;;;;5061959;28;21025;-77
2023/09/05 11:37:08;;;;;;;3.37;1.40;;;23.10;93.00;;;;;;5064896;28;20523;-75
2023/09/05 11:39:35;;;;;;;1.47;1.27;;;23.10;90.70;;;;;;5066088;28;20505;-77
2023/09/05 11:42:02;;;;;;;2.57;1.87;;;23.20;90.10;;;;;;5064722;28;20502;-74
2023/09/05 11:44:39;;;;;;;8.40;1.83;;;23.30;93.40;;;;;;5058349;28;21038;-77
2023/09/05 11:47:08;;;;;;;3.40;2.03;;;23.50;90.10;;;;;;5072204;28;20530;-78
2023/09/05 11:49:35;;;;;;;3.60;1.30;;;23.50;90.60;;;;;;5065684;28;20480;-79
2023/09/05 11:52:04;;;;;;;2.30;1.70;;;23.60;90.70;;;;;;5065835;28;20993;-74
2023/09/05 11:54:32;;;;;;;1.83;1.57;;;23.50;90.50;;;;;;5069387;28;20452;-75
2023/09/05 11:57:02;;;;;;;1.33;1.20;;;23.30;89.50;;;;;;5067974;28;20448;-74
2023/09/05 11:59:30;;;;;;;4.37;2.30;;;23.40;90.10;;;;;;5070339;28;20517;-75
2023/09/05 12:01:57;;;;;;;1.30;1.00;;;23.50;90.20;;;;;;5068852;28;20448;-74
2023/09/05 12:04:25;;;;;;;3.17;1.30;;;23.60;89.50;;;;;;5063633;28;20886;-75
2023/09/05 12:06:53;;;;;;;2.90;2.20;;;23.60;88.10;;;;;;5064635;28;21028;-74
2023/09/05 12:09:21;;;;;;;2.00;1.80;;;23.60;88.30;;;;;;5069800;28;20435;-75
2023/09/05 12:11:50;;;;;;;4.23;1.60;;;23.60;89.70;;;;;;5066314;28;20473;-77
2023/09/05 12:14:20;;;;;;;3.97;1.60;;;23.50;89.20;;;;;;5065437;28;20464;-75
2023/09/05 12:16:48;;;;;;;1.40;1.30;;;23.70;90.90;;;;;;5068115;28;20452;-77
2023/09/05 12:19:18;;;;;;;2.33;1.90;;;23.90;91.10;;;;;;5068629;28;20562;-78
2023/09/05 12:21:47;;;;;;;12.33;1.53;;;23.90;91.40;;;;;;5068587;28;20526;-76
2023/09/05 12:24:21;;;;;;;3.57;1.80;;;23.70;91.20;;;;;;5069284;28;21164;-75
2023/09/05 12:26:50;;;;;;;1.80;1.57;;;23.70;90.20;;;;;;5063168;28;20472;-75
2023/09/05 12:29:21;;;;;;;7.10;2.00;;;23.70;89.80;;;;;;5067504;28;20451;-74
2023/09/05 12:31:49;;;;;;;2.07;1.77;;;23.80;90.80;;;;;;5068761;28;21118;-75
2023/09/05 12:34:17;;;;;;;3.60;1.83;;;23.70;90.40;;;;;;5068650;28;20580;-75
2023/09/05 12:36:45;;;;;;;14.13;1.57;;;23.70;90.50;;;;;;5067478;28;20536;-74
2023/09/05 12:39:13;;;;;;;2.27;1.63;;;23.80;90.70;;;;;;5065005;28;20464;-74
2023/09/05 12:41:40;;;;;;;1.80;1.30;;;23.70;87.80;;;;;;5063520;28;20542;-75
2023/09/05 12:44:08;;;;;;;1.53;1.30;;;23.80;90.10;;;;;;5065393;28;20490;-75
2023/09/05 12:46:35;;;;;;;1.50;1.40;;;23.70;88.40;;;;;;5050987;28;20813;-74
2023/09/05 12:49:03;;;;;;;3.83;1.47;;;23.70;87.50;;;;;;5063231;28;20475;-76
2023/09/05 12:51:33;;;;;;;1.67;0.90;;;23.80;86.30;;;;;;5058736;28;20917;-78